Time;durP1;ratioP1;P1;durP2;ratioP2;P2;SDS_P1;SDS_P2;PMS_P1;PMS_P2;Temp;Humidity;BMP_temperature;BMP_pressure;BME280_temperature;BME280_humidity;BME280_pressure;Samples;Min_cycle;Max_cycle;Signal;HPM_P1;HPM_P2
2022/04/11 01:00:48;;;;;;;;;;;;;;;;;;;;;
2022/04/11 01:07:43;;;;;;;0.28;0.28;;;;;;;;;;6317095;22;20404;-96
2022/04/11 01:11:07;;;;;;;1.80;1.70;;;;;;;;;;6279648;22;20061;-96
2022/04/11 01:14:11;;;;;;;1.02;0.93;;;;;;;;;;6277346;22;20008;-96
2022/04/11 01:17:37;;;;;;;0.50;0.50;;;;;;;;;;6320724;22;20044;-95
2022/04/11 02:21:22;;;;;;;0.30;0.30;;;;;;;;;;6329856;22;20027;-96
2022/04/11 02:24:37;;;;;;;0.30;0.30;;;;;;;;;;6310403;22;20022;-94
2022/04/11 02:30:39;;;;;;;0.40;0.40;;;;;;;;;;6289568;22;20076;-95
2022/04/11 02:33:21;;;;;;;;;;;;;;;;;;;;;
2022/04/11 02:36:15;;;;;;;0.30;0.30;;;;;;;;;;6345180;22;20033;-94
2022/04/11 02:39:12;;;;;;;0.45;0.45;;;;;;;;;;6310703;22;20053;-96
2022/04/11 02:42:05;;;;;;;0.40;0.40;;;;;;;;;;6298957;22;20011;-96
2022/04/11 02:45:03;;;;;;;0.40;0.40;;;;;;;;;;6307647;22;20034;-95
2022/04/11 02:51:26;;;;;;;0.40;0.40;;;;;;;;;;6325258;22;20019;-96
2022/04/11 02:54:26;;;;;;;4.57;4.13;;;;;;;;;;6308918;22;20011;-94
2022/04/11 02:57:10;;;;;;;1.85;1.75;;;;;;;;;;6277330;22;20066;-95
2022/04/11 03:00:15;;;;;;;0.40;0.40;;;;;;;;;;6276672;22;20074;-96
2022/04/11 03:03:32;;;;;;;0.40;0.40;;;;;;;;;;6335492;22;20038;-96
2022/04/11 03:06:08;;;;;;;0.50;0.50;;;;;;;;;;6311606;22;20043;-96
2022/04/11 03:32:51;;;;;;;0.50;0.50;;;;;;;;;;6354669;22;20034;-96
2022/04/11 03:35:35;;;;;;;0.30;0.30;;;;;;;;;;6307540;22;20096;-96
2022/04/11 03:41:53;;;;;;;0.40;0.40;;;;;;;;;;6298961;22;20111;-96
2022/04/11 03:44:42;;;;;;;0.38;0.38;;;;;;;;;;6239994;22;20049;-96
2022/04/11 03:47:33;;;;;;;0.40;0.40;;;;;;;;;;6336741;22;20015;-96
2022/04/11 03:50:12;;;;;;;0.40;0.40;;;;;;;;;;6312920;22;20014;-94
2022/04/11 03:52:56;;;;;;;0.32;0.32;;;;;;;;;;6301489;22;20007;-96
2022/04/11 03:55:59;;;;;;;0.40;0.40;;;;;;;;;;6328224;22;20022;-96
2022/04/11 03:58:35;;;;;;;0.30;0.30;;;;;;;;;;6276238;22;20014;-96
2022/04/11 04:01:22;;;;;;;0.40;0.40;;;;;;;;;;6283288;22;20018;-96
2022/04/11 04:03:59;;;;;;;0.40;0.40;;;;;;;;;;6307061;22;20021;-95
2022/04/11 04:06:40;;;;;;;0.30;0.30;;;;;;;;;;6308440;22;20041;-96
2022/04/11 04:09:12;;;;;;;0.40;0.40;;;;;;;;;;6305398;22;20119;-96
2022/04/11 04:11:44;;;;;;;0.30;0.30;;;;;;;;;;6305075;22;20436;-95
2022/04/11 04:14:43;;;;;;;0.30;0.30;;;;;;;;;;6332311;22;20023;-96
2022/04/11 04:17:55;;;;;;;0.40;0.40;;;;;;;;;;6336188;22;20003;-96
2022/04/11 04:20:44;;;;;;;0.40;0.40;;;;;;;;;;6333756;22;20035;-96
2022/04/11 04:23:12;;;;;;;0.30;0.30;;;;;;;;;;6301286;22;20011;-96
2022/04/11 04:25:47;;;;;;;0.45;0.45;;;;;;;;;;6301326;22;20040;-96
2022/04/11 04:28:17;;;;;;;0.40;0.40;;;;;;;;;;6300628;22;20098;-96
2022/04/11 04:31:08;;;;;;;0.40;0.40;;;;;;;;;;6326019;22;20289;-96
2022/04/11 04:33:34;;;;;;;0.40;0.40;;;;;;;;;;6324105;22;20022;-96
2022/04/11 04:36:00;;;;;;;0.30;0.30;;;;;;;;;;6300957;22;20011;-96
2022/04/11 04:38:27;;;;;;;0.73;0.73;;;;;;;;;;6302909;22;20015;-96
2022/04/11 04:40:59;;;;;;;0.30;0.30;;;;;;;;;;6278897;22;20006;-96
2022/04/11 04:43:28;;;;;;;0.40;0.40;;;;;;;;;;6302981;22;20041;-96
2022/04/11 04:45:57;;;;;;;0.30;0.30;;;;;;;;;;6302525;22;20022;-96
2022/04/11 04:48:33;;;;;;;0.22;0.22;;;;;;;;;;6328936;22;20018;-96
2022/04/11 04:51:24;;;;;;;0.40;0.40;;;;;;;;;;6329370;22;20058;-96
2022/04/11 04:54:16;;;;;;;0.40;0.40;;;;;;;;;;6304511;22;20045;-96
2022/04/11 04:57:00;;;;;;;0.30;0.30;;;;;;;;;;6326807;22;20196;-95
2022/04/11 04:59:38;;;;;;;0.40;0.40;;;;;;;;;;6303688;22;20018;-96
2022/04/11 05:02:05;;;;;;;0.40;0.40;;;;;;;;;;6302845;22;20015;-96
2022/04/11 05:04:58;;;;;;;0.30;0.30;;;;;;;;;;6306122;22;20062;-96
2022/04/11 05:07:31;;;;;;;0.32;0.32;;;;;;;;;;6279373;22;20014;-95
2022/04/11 05:10:09;;;;;;;0.30;0.30;;;;;;;;;;6304722;22;20022;-96
2022/04/11 05:12:44;;;;;;;0.30;0.30;;;;;;;;;;6304427;22;20080;-96
2022/04/11 05:15:25;;;;;;;0.30;0.30;;;;;;;;;;6279898;22;20011;-96
2022/04/11 05:18:02;;;;;;;0.28;0.28;;;;;;;;;;6281121;22;20026;-95
2022/04/11 05:20:53;;;;;;;0.80;0.77;;;;;;;;;;6304485;22;20018;-96
2022/04/11 05:23:35;;;;;;;0.50;0.50;;;;;;;;;;6306471;22;20025;-96
2022/04/11 05:26:21;;;;;;;;;;;;;;;;;;6352559;22;20044;-95
2022/04/11 05:29:11;;;;;;;0.50;0.50;;;;;;;;;;6328822;22;19991;-96
2022/04/11 05:31:53;;;;;;;0.40;0.40;;;;;;;;;;6355885;22;20064;-96
2022/04/11 05:34:30;;;;;;;0.30;0.30;;;;;;;;;;6301259;22;20015;-95
2022/04/11 05:37:09;;;;;;;1.25;1.15;;;;;;;;;;6301808;22;20027;-96
2022/04/11 05:39:38;;;;;;;0.60;0.60;;;;;;;;;;6303945;22;20474;-96
2022/04/11 05:42:25;;;;;;;0.30;0.30;;;;;;;;;;6271287;22;20016;-96
2022/04/11 05:45:26;;;;;;;0.40;0.40;;;;;;;;;;6279128;22;20020;-95
2022/04/11 05:48:04;;;;;;;0.85;0.75;;;;;;;;;;6284814;22;20022;-96
2022/04/11 05:50:57;;;;;;;0.40;0.40;;;;;;;;;;6306524;22;20001;-95
2022/04/11 05:54:21;;;;;;;0.43;0.43;;;;;;;;;;6362085;22;20010;-95
2022/04/11 05:57:00;;;;;;;0.40;0.40;;;;;;;;;;6330527;22;20325;-94
2022/04/11 05:59:26;;;;;;;0.73;0.73;;;;;;;;;;6297202;22;20021;-93
2022/04/11 06:01:52;;;;;;;0.32;0.32;;;;;;;;;;6299470;22;20076;-94
2022/04/11 06:04:20;;;;;;;0.30;0.30;;;;;;;;;;6300009;22;20022;-93
2022/04/11 06:06:46;;;;;;;0.40;0.40;;;;;;;;;;6299081;22;20015;-93
2022/04/11 06:09:12;;;;;;;0.40;0.40;;;;;;;;;;6299956;22;20064;-92
2022/04/11 06:11:44;;;;;;;0.40;0.40;;;;;;;;;;6298767;22;20015;-93
2022/04/11 06:14:12;;;;;;;0.30;0.30;;;;;;;;;;6298156;22;20014;-91
2022/04/11 06:16:38;;;;;;;0.30;0.30;;;;;;;;;;6297968;22;20050;-93
2022/04/11 06:19:04;;;;;;;0.40;0.40;;;;;;;;;;6299051;22;20015;-91
2022/04/11 06:21:30;;;;;;;0.40;0.40;;;;;;;;;;6299065;22;20016;-92
2022/04/11 06:23:56;;;;;;;0.40;0.40;;;;;;;;;;6296513;22;20136;-89
2022/04/11 06:26:22;;;;;;;1.13;1.05;;;;;;;;;;6297559;22;20015;-92
2022/04/11 06:28:52;;;;;;;0.35;0.35;;;;;;;;;;6300506;22;20014;-94
2022/04/11 06:31:20;;;;;;;0.30;0.30;;;;;;;;;;6302046;22;20470;-93
2022/04/11 06:33:48;;;;;;;0.40;0.40;;;;;;;;;;6300365;22;20062;-92
2022/04/11 06:36:14;;;;;;;0.47;0.47;;;;;;;;;;6301652;22;20014;-92
2022/04/11 06:38:41;;;;;;;0.40;0.40;;;;;;;;;;6299055;22;20101;-94
2022/04/11 06:41:13;;;;;;;0.40;0.40;;;;;;;;;;6302830;22;20015;-96
2022/04/11 06:43:45;;;;;;;0.40;0.40;;;;;;;;;;6307546;22;20023;-96
2022/04/11 06:46:11;;;;;;;0.93;0.93;;;;;;;;;;6301260;22;20011;-93
2022/04/11 06:48:37;;;;;;;9.43;5.78;;;;;;;;;;6298427;22;20374;-91
2022/04/11 06:51:09;;;;;;;0.22;0.22;;;;;;;;;;6299460;22;20006;-93
2022/04/11 06:53:35;;;;;;;0.30;0.30;;;;;;;;;;6301872;22;20336;-95
2022/04/11 06:56:01;;;;;;;0.40;0.40;;;;;;;;;;6301292;22;20137;-95
2022/04/11 06:58:27;;;;;;;0.40;0.40;;;;;;;;;;6301278;22;20013;-94
2022/04/11 07:00:53;;;;;;;0.30;0.30;;;;;;;;;;6301329;22;20014;-95
2022/04/11 07:03:27;;;;;;;0.82;0.82;;;;;;;;;;6301095;22;20021;-94
2022/04/11 07:05:53;;;;;;;0.30;0.30;;;;;;;;;;6276982;22;20018;-93
2022/04/11 07:08:19;;;;;;;0.40;0.40;;;;;;;;;;6300147;22;20022;-94
2022/04/11 07:10:47;;;;;;;0.50;0.50;;;;;;;;;;6300599;22;20042;-92
2022/04/11 07:13:14;;;;;;;0.20;0.20;;;;;;;;;;6327538;22;20025;-94
2022/04/11 07:15:40;;;;;;;0.30;0.30;;;;;;;;;;6327043;22;20015;-93
2022/04/11 07:18:15;;;;;;;0.50;0.50;;;;;;;;;;6299580;22;20015;-94
2022/04/11 07:20:47;;;;;;;0.32;0.32;;;;;;;;;;6296930;22;20007;-86
2022/04/11 07:23:16;;;;;;;0.60;0.52;;;;;;;;;;6324233;22;20011;-92
2022/04/11 07:25:42;;;;;;;0.30;0.30;;;;;;;;;;6300786;22;20600;-93
2022/04/11 07:28:10;;;;;;;0.32;0.32;;;;;;;;;;6295424;22;20054;-91
2022/04/11 07:30:36;;;;;;;0.40;0.40;;;;;;;;;;6295883;22;20018;-90
2022/04/11 07:33:02;;;;;;;0.50;0.50;;;;;;;;;;6298581;22;20014;-96
2022/04/11 07:39:19;;;;;;;1.98;1.25;;;;;;;;;;6369416;22;20024;-95
2022/04/11 07:42:11;;;;;;;0.20;0.20;;;;;;;;;;6304130;22;20010;-96
2022/04/11 07:44:41;;;;;;;0.40;0.40;;;;;;;;;;6298422;22;20011;-95
2022/04/11 07:47:08;;;;;;;0.52;0.52;;;;;;;;;;6299824;22;20044;-93
2022/04/11 07:49:34;;;;;;;0.30;0.30;;;;;;;;;;6302678;22;20322;-93
2022/04/11 07:52:03;;;;;;;0.20;0.20;;;;;;;;;;6301688;22;20015;-94
2022/04/11 07:54:37;;;;;;;0.40;0.40;;;;;;;;;;6299899;22;20507;-94
2022/04/11 07:57:24;;;;;;;3.85;3.60;;;;;;;;;;6334506;22;20019;-96
2022/04/11 08:00:10;;;;;;;0.60;0.57;;;;;;;;;;6273037;22;20015;-91
2022/04/11 08:02:37;;;;;;;0.30;0.30;;;;;;;;;;6295298;22;20067;-87
2022/04/11 08:05:05;;;;;;;0.30;0.30;;;;;;;;;;6291104;22;20510;-86
2022/04/11 08:07:34;;;;;;;0.40;0.40;;;;;;;;;;6290722;22;20050;-92
2022/04/11 08:10:06;;;;;;;0.40;0.40;;;;;;;;;;6323652;22;20083;-93
2022/04/11 08:16:19;;;;;;;0.35;0.35;;;;;;;;;;6363749;22;20005;-95
2022/04/11 08:19:26;;;;;;;0.50;0.50;;;;;;;;;;6303052;22;20068;-96
2022/04/11 08:22:01;;;;;;;0.20;0.20;;;;;;;;;;6225047;22;20019;-96
2022/04/11 08:24:50;;;;;;;0.50;0.50;;;;;;;;;;6303355;22;20444;-95
2022/04/11 08:27:25;;;;;;;0.88;0.73;;;;;;;;;;6300707;22;20025;-92
2022/04/11 08:30:01;;;;;;;3.75;1.50;;;;;;;;;;6298628;22;20089;-93
2022/04/11 08:32:29;;;;;;;2.45;0.90;;;;;;;;;;6300074;22;20011;-93
2022/04/11 08:34:59;;;;;;;6.03;1.85;;;;;;;;;;6299347;22;20011;-95
2022/04/11 08:37:25;;;;;;;1.00;0.90;;;;;;;;;;6299723;22;20014;-93
2022/04/11 08:39:58;;;;;;;0.30;0.30;;;;;;;;;;6299872;22;20015;-93
2022/04/11 08:43:20;;;;;;;;;;;;;;;;;;;;;
2022/04/11 08:49:15;;;;;;;0.57;0.57;;;;;;;;;;6238380;23;20047;-95
2022/04/11 08:51:42;;;;;;;0.20;0.20;;;;;;;;;;6177289;23;20013;-93
2022/04/11 08:54:11;;;;;;;1.83;1.15;;;;;;;;;;6189835;22;20012;-94
2022/04/11 08:56:39;;;;;;;2.30;1.48;;;;;;;;;;6276324;22;20054;-94
2022/04/11 08:59:31;;;;;;;1.55;1.13;;;;;;;;;;6301272;22;20089;-94
2022/04/11 09:02:00;;;;;;;0.32;0.32;;;;;;;;;;6300390;22;20022;-93
2022/04/11 09:07:58;;;;;;;1.85;1.02;;;;;;;;;;6349111;22;20085;-96
2022/04/11 09:14:02;;;;;;;0.55;0.50;;;;;;;;;;6292445;22;20024;-96
2022/04/11 09:16:56;;;;;;;0.30;0.30;;;;;;;;;;6267343;22;20012;-95
2022/04/11 09:19:29;;;;;;;0.95;0.77;;;;;;;;;;6289834;22;20015;-94
2022/04/11 09:22:38;;;;;;;;;;;;;;;;;;;;;
2022/04/11 09:25:16;;;;;;;1.00;0.93;;;;;;;;;;6268028;22;20096;-91
2022/04/11 09:27:49;;;;;;;0.55;0.43;;;;;;;;;;6262341;22;20063;-93
2022/04/11 09:30:32;;;;;;;1.35;1.05;;;;;;;;;;6265827;22;20027;-95
2022/04/11 09:32:58;;;;;;;0.63;0.63;;;;;;;;;;6264270;22;20023;-94
2022/04/11 09:35:26;;;;;;;0.55;0.55;;;;;;;;;;6286155;22;20400;-93
2022/04/11 09:38:17;;;;;;;0.47;0.47;;;;;;;;;;6263946;22;20044;-92
2022/04/11 09:40:54;;;;;;;0.63;0.63;;;;;;;;;;6264903;22;20020;-95
2022/04/11 09:43:36;;;;;;;4.68;1.10;;;;;;;;;;6265955;22;20520;-94
2022/04/11 09:46:06;;;;;;;0.75;0.68;;;;;;;;;;6269511;22;20015;-96
2022/04/11 09:48:41;;;;;;;1.45;0.95;;;;;;;;;;6268121;22;20031;-96
2022/04/11 09:51:41;;;;;;;3.35;1.92;;;;;;;;;;6270461;22;20086;-96
2022/04/11 09:54:55;;;;;;;0.80;0.80;;;;;;;;;;6177417;23;20036;-96
2022/04/11 09:57:33;;;;;;;1.45;1.00;;;;;;;;;;6175382;23;20013;-95
2022/04/11 10:00:26;;;;;;;0.20;0.20;;;;;;;;;;6258520;22;20383;-96
2022/04/11 10:02:52;;;;;;;3.72;1.90;;;;;;;;;;6264597;22;20212;-94
2022/04/11 10:05:21;;;;;;;0.60;0.60;;;;;;;;;;6265620;22;20018;-94
2022/04/11 10:08:00;;;;;;;0.65;0.60;;;;;;;;;;6265063;22;20015;-95
2022/04/11 10:10:52;;;;;;;1.05;0.60;;;;;;;;;;6266304;22;20019;-95
2022/04/11 10:13:24;;;;;;;1.02;0.40;;;;;;;;;;6294455;22;20015;-91
2022/04/11 10:15:53;;;;;;;3.17;1.85;;;;;;;;;;6264045;22;20031;-94
2022/04/11 10:18:41;;;;;;;0.75;0.50;;;;;;;;;;6264517;22;20046;-95
2022/04/11 10:21:10;;;;;;;2.88;1.65;;;;;;;;;;6266440;22;20316;-93
2022/04/11 10:24:25;;;;;;;;;;;;;;;;;;;;;
2022/04/11 10:27:20;;;;;;;0.57;0.57;;;;;;;;;;6179091;23;20019;-96
2022/04/11 10:29:53;;;;;;;2.33;1.33;;;;;;;;;;6267734;22;20011;-96
2022/04/11 10:32:22;;;;;;;1.45;1.02;;;;;;;;;;6267131;22;20346;-96
2022/04/11 10:34:53;;;;;;;0.40;0.40;;;;;;;;;;6267130;22;20390;-96
2022/04/11 10:37:26;;;;;;;0.95;0.90;;;;;;;;;;6267178;22;20020;-95
2022/04/11 10:39:54;;;;;;;0.25;0.25;;;;;;;;;;6266652;22;20020;-96
2022/04/11 10:42:25;;;;;;;0.90;0.80;;;;;;;;;;6263844;22;20020;-95
2022/04/11 10:44:59;;;;;;;0.55;0.55;;;;;;;;;;6267379;22;20019;-96
2022/04/11 10:47:35;;;;;;;1.77;1.10;;;;;;;;;;6266182;22;20011;-95
2022/04/11 10:50:06;;;;;;;;;;;;;;;;;;6268239;22;20023;-96
2022/04/11 10:52:43;;;;;;;6.00;2.00;;;;;;;;;;6242199;22;20344;-96
2022/04/11 10:55:11;;;;;;;1.17;0.68;;;;;;;;;;6266879;22;20448;-96
2022/04/11 10:57:48;;;;;;;2.75;1.40;;;;;;;;;;6266605;22;20026;-95
2022/04/11 11:00:22;;;;;;;0.20;0.20;;;;;;;;;;6266974;22;20019;-96
2022/04/11 11:03:17;;;;;;;0.20;0.20;;;;;;;;;;6272660;22;20026;-96
2022/04/11 11:05:49;;;;;;;0.30;0.30;;;;;;;;;;6269406;22;20024;-95
2022/04/11 11:08:17;;;;;;;1.27;0.63;;;;;;;;;;6267146;22;20475;-96
2022/04/11 11:10:49;;;;;;;1.65;1.10;;;;;;;;;;6266166;22;20063;-95
2022/04/11 11:13:55;;;;;;;1.33;0.88;;;;;;;;;;6293503;22;20069;-96
2022/04/11 11:16:23;;;;;;;0.25;0.25;;;;;;;;;;6265655;22;20346;-95
2022/04/11 11:18:55;;;;;;;1.35;0.63;;;;;;;;;;6267491;22;20024;-96
2022/04/11 11:21:55;;;;;;;;;;;;;;;;;;;;;
2022/04/11 11:25:06;;;;;;;2.45;1.70;;;;;;;;;;6233128;22;20022;-96
2022/04/11 11:27:53;;;;;;;0.57;0.50;;;;;;;;;;6265208;22;20039;-96
2022/04/11 11:34:24;;;;;;;0.65;0.65;;;;;;;;;;6268426;22;20039;-95
2022/04/11 11:37:19;;;;;;;0.82;0.77;;;;;;;;;;6286247;22;20023;-95
2022/04/11 11:40:10;;;;;;;0.40;0.40;;;;;;;;;;6237136;22;20022;-96
2022/04/11 11:43:11;;;;;;;1.88;1.38;;;;;;;;;;6230495;23;20052;-96
2022/04/11 11:46:12;;;;;;;;;;;;;;;;;;;;;
2022/04/11 11:49:23;;;;;;;2.50;1.42;;;;;;;;;;6208367;23;20020;-95
2022/04/11 11:54:52;;;;;;;0.20;0.20;;;;;;;;;;6355065;22;20019;-92
2022/04/11 11:57:42;;;;;;;0.47;0.47;;;;;;;;;;6300836;22;20018;-92
2022/04/11 12:00:23;;;;;;;0.40;0.35;;;;;;;;;;6303608;22;20440;-95
2022/04/11 12:05:44;;;;;;;0.68;0.55;;;;;;;;;;6327376;22;20026;-94
2022/04/11 12:08:22;;;;;;;0.17;0.17;;;;;;;;;;6302121;22;20388;-94
2022/04/11 12:10:48;;;;;;;2.55;1.13;;;;;;;;;;6300292;22;20014;-92
2022/04/11 12:13:29;;;;;;;3.50;1.85;;;;;;;;;;6301593;22;20071;-94
2022/04/11 12:16:14;;;;;;;0.30;0.30;;;;;;;;;;6302383;22;20006;-96
2022/04/11 12:18:49;;;;;;;0.17;0.17;;;;;;;;;;6268881;22;20023;-95
2022/04/11 12:21:18;;;;;;;3.88;1.92;;;;;;;;;;6300970;22;20045;-94
2022/04/11 12:23:50;;;;;;;1.08;0.88;;;;;;;;;;6302249;22;20014;-96
2022/04/11 12:26:31;;;;;;;0.98;0.80;;;;;;;;;;6299442;22;20014;-96
2022/04/11 12:28:57;;;;;;;0.75;0.75;;;;;;;;;;6300620;22;20015;-93
2022/04/11 12:31:23;;;;;;;3.85;2.00;;;;;;;;;;6299868;22;20100;-90
2022/04/11 12:33:52;;;;;;;7.25;2.63;;;;;;;;;;6324181;22;20751;-95
2022/04/11 12:36:22;;;;;;;5.43;2.63;;;;;;;;;;6300558;22;20022;-93
2022/04/11 12:39:10;;;;;;;6.60;2.60;;;;;;;;;;6300904;22;20019;-93
2022/04/11 12:41:47;;;;;;;6.22;3.60;;;;;;;;;;6300651;22;20014;-94
2022/04/11 12:44:13;;;;;;;2.78;1.38;;;;;;;;;;6300314;22;20015;-91
2022/04/11 12:46:43;;;;;;;0.32;0.30;;;;;;;;;;6294451;22;20015;-91
2022/04/11 12:49:16;;;;;;;2.25;1.70;;;;;;;;;;6295646;22;20015;-90
2022/04/11 12:51:43;;;;;;;3.83;2.17;;;;;;;;;;6297661;22;20019;-91
2022/04/11 12:54:10;;;;;;;9.07;1.33;;;;;;;;;;6303112;22;20102;-94
2022/04/11 12:56:45;;;;;;;4.22;2.15;;;;;;;;;;6296872;22;20011;-93
2022/04/11 12:59:33;;;;;;;5.38;2.65;;;;;;;;;;6305678;22;20019;-96
2022/04/11 13:02:10;;;;;;;1.45;1.05;;;;;;;;;;6332234;22;20010;-96
2022/04/11 13:05:15;;;;;;;;;;;;;;;;;;;;;
2022/04/11 13:07:47;;;;;;;0.68;0.60;;;;;;;;;;6330312;22;20373;-96
2022/04/11 13:10:38;;;;;;;3.00;1.02;;;;;;;;;;6328403;22;20015;-96
2022/04/11 13:19:41;;;;;;;;;;;;;;;;;;;;;
2022/04/11 13:22:23;;;;;;;4.95;3.00;;;;;;;;;;6305616;22;20011;-95
2022/04/11 13:25:01;;;;;;;7.95;3.47;;;;;;;;;;6301058;22;20026;-96
2022/04/11 13:27:33;;;;;;;4.95;3.47;;;;;;;;;;6297244;22;20015;-96
2022/04/11 13:30:25;;;;;;;3.08;1.73;;;;;;;;;;6330921;22;20032;-96
2022/04/11 13:33:20;;;;;;;4.22;2.67;;;;;;;;;;6275466;22;20025;-96
2022/04/11 13:36:29;;;;;;;29.30;2.50;;;;;;;;;;6183934;23;20043;-96
2022/04/11 13:38:56;;;;;;;2.10;1.20;;;;;;;;;;6177773;23;20021;-96
2022/04/11 13:41:51;;;;;;;;;;;;;;;;;;;;;
2022/04/11 13:44:49;;;;;;;2.63;1.75;;;;;;;;;;6328332;22;20018;-96
2022/04/11 13:50:50;;;;;;;5.93;3.42;;;;;;;;;;6222343;23;20019;-96
2022/04/11 13:53:46;;;;;;;0.63;0.60;;;;;;;;;;6176924;23;20064;-96
2022/04/11 13:56:45;;;;;;;0.10;0.10;;;;;;;;;;6307004;22;20038;-96
2022/04/11 13:59:30;;;;;;;3.35;1.77;;;;;;;;;;6325913;22;20010;-96
2022/04/11 14:02:28;;;;;;;3.63;2.00;;;;;;;;;;6302288;22;20011;-95
2022/04/11 14:05:18;;;;;;;0.95;0.77;;;;;;;;;;6327141;22;20025;-92
2022/04/11 14:07:44;;;;;;;10.05;3.42;;;;;;;;;;6297899;22;20386;-90
2022/04/11 14:10:14;;;;;;;5.72;2.58;;;;;;;;;;6299565;22;20428;-90
2022/04/11 14:12:45;;;;;;;5.68;3.40;;;;;;;;;;6294196;22;20038;-91
2022/04/11 14:15:11;;;;;;;2.10;1.30;;;;;;;;;;6294826;22;20013;-91
2022/04/11 14:17:45;;;;;;;0.38;0.38;;;;;;;;;;6294183;22;20018;-90
2022/04/11 14:20:17;;;;;;;3.35;1.45;;;;;;;;;;6294674;22;20019;-88
2022/04/11 14:22:43;;;;;;;1.73;1.10;;;;;;;;;;6294261;22;20018;-90
2022/04/11 14:25:13;;;;;;;2.58;1.55;;;;;;;;;;6293051;22;20147;-90
2022/04/11 14:27:40;;;;;;;1.88;1.30;;;;;;;;;;6294569;22;20022;-90
2022/04/11 14:30:23;;;;;;;2.85;2.13;;;;;;;;;;6296388;22;20048;-90
2022/04/11 14:32:49;;;;;;;5.43;3.10;;;;;;;;;;6295662;22;20018;-90
2022/04/11 14:35:15;;;;;;;37.88;4.00;;;;;;;;;;6293576;22;20029;-89
2022/04/11 14:37:41;;;;;;;2.28;1.80;;;;;;;;;;6295240;22;20054;-90
2022/04/11 14:40:08;;;;;;;0.63;0.60;;;;;;;;;;6294569;22;20048;-91
2022/04/11 14:42:35;;;;;;;7.80;3.70;;;;;;;;;;6295151;22;20014;-91
2022/04/11 14:45:01;;;;;;;3.55;2.00;;;;;;;;;;6293589;22;20026;-91
2022/04/11 14:47:27;;;;;;;2.05;1.20;;;;;;;;;;6293084;22;20019;-91
2022/04/11 14:49:54;;;;;;;9.25;1.88;;;;;;;;;;6296926;22;20026;-94
2022/04/11 14:52:23;;;;;;;4.38;2.58;;;;;;;;;;6276602;22;20344;-91
2022/04/11 14:54:49;;;;;;;0.90;0.65;;;;;;;;;;6302092;22;20021;-94
2022/04/11 14:57:17;;;;;;;5.93;3.25;;;;;;;;;;6328466;22;20075;-95
2022/04/11 14:59:44;;;;;;;5.63;2.92;;;;;;;;;;6302060;22;20026;-93
2022/04/11 15:02:19;;;;;;;2.47;1.70;;;;;;;;;;6301373;22;20029;-93
2022/04/11 15:04:45;;;;;;;2.45;1.63;;;;;;;;;;6301539;22;20018;-94
2022/04/11 15:07:12;;;;;;;3.50;2.30;;;;;;;;;;6301707;22;20436;-95
2022/04/11 15:09:38;;;;;;;3.75;2.13;;;;;;;;;;6302465;22;20011;-95
2022/04/11 15:12:10;;;;;;;7.38;4.32;;;;;;;;;;6302056;22;20018;-94
2022/04/11 15:14:37;;;;;;;5.60;3.55;;;;;;;;;;6325950;22;20036;-94
2022/04/11 15:17:03;;;;;;;13.27;5.28;;;;;;;;;;6300459;22;20018;-94
2022/04/11 15:19:30;;;;;;;7.20;3.13;;;;;;;;;;6301349;22;20025;-94
2022/04/11 15:21:59;;;;;;;3.22;1.20;;;;;;;;;;6301761;22;20019;-94
2022/04/11 15:24:25;;;;;;;2.08;1.23;;;;;;;;;;6301451;22;20019;-94
2022/04/11 15:26:54;;;;;;;6.95;3.03;;;;;;;;;;6301522;22;20019;-92
2022/04/11 15:29:26;;;;;;;2.00;1.38;;;;;;;;;;6300861;22;20015;-94
2022/04/11 15:31:52;;;;;;;1.95;1.70;;;;;;;;;;6301954;22;20019;-94
2022/04/11 15:34:19;;;;;;;6.70;3.53;;;;;;;;;;6302191;22;20014;-94
2022/04/11 15:36:51;;;;;;;3.80;2.58;;;;;;;;;;6301078;22;20018;-94
2022/04/11 15:39:25;;;;;;;15.15;2.30;;;;;;;;;;6277108;22;20047;-94
2022/04/11 15:41:51;;;;;;;3.70;2.10;;;;;;;;;;6301652;22;20025;-94
2022/04/11 15:44:17;;;;;;;6.22;3.90;;;;;;;;;;6301791;22;20344;-95
2022/04/11 15:46:44;;;;;;;3.28;2.15;;;;;;;;;;6302112;22;20019;-94
2022/04/11 15:49:12;;;;;;;4.55;2.58;;;;;;;;;;6302012;22;20068;-94
2022/04/11 15:51:42;;;;;;;2.90;1.67;;;;;;;;;;6301820;22;20010;-95
2022/04/11 15:54:11;;;;;;;4.88;2.70;;;;;;;;;;6301357;22;20671;-94
2022/04/11 15:56:37;;;;;;;5.35;2.28;;;;;;;;;;6301614;22;20090;-95
2022/04/11 15:59:04;;;;;;;4.05;2.35;;;;;;;;;;6302254;22;20026;-95
2022/04/11 16:01:33;;;;;;;5.70;3.38;;;;;;;;;;6300871;22;20030;-93
2022/04/11 16:04:02;;;;;;;2.65;1.33;;;;;;;;;;6301077;22;20019;-95
2022/04/11 16:06:31;;;;;;;4.10;2.67;;;;;;;;;;6300593;22;20022;-94
2022/04/11 16:09:01;;;;;;;3.90;2.25;;;;;;;;;;6301144;22;20015;-94
2022/04/11 16:11:27;;;;;;;0.65;0.60;;;;;;;;;;6300325;22;20014;-95
2022/04/11 16:13:54;;;;;;;6.72;3.25;;;;;;;;;;6300158;22;20014;-94
2022/04/11 16:16:20;;;;;;;3.10;1.85;;;;;;;;;;6299078;22;20011;-95
2022/04/11 16:18:46;;;;;;;4.35;2.53;;;;;;;;;;6299837;22;20038;-95
2022/04/11 16:21:12;;;;;;;4.03;1.65;;;;;;;;;;6299154;22;20026;-94
2022/04/11 16:23:41;;;;;;;8.00;3.42;;;;;;;;;;6298368;22;20015;-95
2022/04/11 16:26:08;;;;;;;3.95;2.10;;;;;;;;;;6299851;22;20015;-94
2022/04/11 16:28:35;;;;;;;3.53;2.20;;;;;;;;;;6299920;22;20646;-94
2022/04/11 16:31:04;;;;;;;3.80;2.22;;;;;;;;;;6301086;22;20018;-95
2022/04/11 16:33:33;;;;;;;0.90;0.65;;;;;;;;;;6300516;22;20046;-95
2022/04/11 16:35:59;;;;;;;4.28;1.77;;;;;;;;;;6300801;22;20007;-94
2022/04/11 16:38:25;;;;;;;3.20;1.52;;;;;;;;;;6300757;22;20040;-94
2022/04/11 16:40:54;;;;;;;2.53;1.58;;;;;;;;;;6301026;22;20050;-94
2022/04/11 16:43:23;;;;;;;3.55;1.88;;;;;;;;;;6301554;22;20014;-95
2022/04/11 16:45:52;;;;;;;1.65;1.38;;;;;;;;;;6301068;22;20022;-94
2022/04/11 16:48:21;;;;;;;3.10;2.00;;;;;;;;;;6301593;22;20023;-94
2022/04/11 16:50:49;;;;;;;5.30;3.05;;;;;;;;;;6301287;22;20026;-95
2022/04/11 16:53:24;;;;;;;4.63;2.08;;;;;;;;;;6314405;22;20022;-93
2022/04/11 16:55:51;;;;;;;1.92;0.65;;;;;;;;;;6300388;22;20010;-94
2022/04/11 16:58:18;;;;;;;2.92;1.83;;;;;;;;;;6299105;22;20021;-94
2022/04/11 17:00:46;;;;;;;5.35;2.78;;;;;;;;;;6300102;22;20026;-94
2022/04/11 17:03:13;;;;;;;1.85;1.65;;;;;;;;;;6299610;22;20037;-94
2022/04/11 17:05:39;;;;;;;2.67;1.58;;;;;;;;;;6299870;22;20067;-95
2022/04/11 17:08:07;;;;;;;4.00;1.67;;;;;;;;;;6299810;22;20023;-93
2022/04/11 17:10:36;;;;;;;2.53;1.58;;;;;;;;;;6300408;22;20015;-95
2022/04/11 17:13:11;;;;;;;3.20;2.00;;;;;;;;;;6301063;22;20011;-94
2022/04/11 17:18:34;;;;;;;2.22;1.40;;;;;;;;;;6326476;22;20023;-96
2022/04/11 17:21:01;;;;;;;3.42;1.40;;;;;;;;;;6300601;22;20015;-94
2022/04/11 17:23:31;;;;;;;1.35;1.25;;;;;;;;;;6300299;22;20479;-94
2022/04/11 17:26:02;;;;;;;2.40;1.38;;;;;;;;;;6325923;22;20018;-95
2022/04/11 17:28:39;;;;;;;3.85;1.98;;;;;;;;;;6299888;22;20044;-95
2022/04/11 17:31:12;;;;;;;8.10;2.25;;;;;;;;;;6300608;22;20011;-95
2022/04/11 17:33:38;;;;;;;0.73;0.65;;;;;;;;;;6299537;22;20090;-94
2022/04/11 17:36:06;;;;;;;2.03;1.38;;;;;;;;;;6299843;22;20041;-94
2022/04/11 17:38:40;;;;;;;2.20;1.10;;;;;;;;;;6300410;22;20026;-95
2022/04/11 17:41:15;;;;;;;3.28;2.00;;;;;;;;;;6300624;22;20487;-95
2022/04/11 17:43:41;;;;;;;11.18;1.85;;;;;;;;;;6300369;22;20101;-95
2022/04/11 17:46:11;;;;;;;3.53;2.17;;;;;;;;;;6300237;22;20026;-95
2022/04/11 17:48:50;;;;;;;2.88;1.40;;;;;;;;;;6301394;22;20019;-95
2022/04/11 17:51:28;;;;;;;2.00;1.25;;;;;;;;;;6302475;22;20038;-95
2022/04/11 17:54:02;;;;;;;1.25;0.82;;;;;;;;;;6301931;22;20030;-94
2022/04/11 17:56:30;;;;;;;1.05;0.73;;;;;;;;;;6301072;22;20065;-94
2022/04/11 17:59:02;;;;;;;1.13;0.82;;;;;;;;;;6300558;22;20015;-95
2022/04/11 18:01:31;;;;;;;1.88;1.23;;;;;;;;;;6301671;22;20007;-95
2022/04/11 18:04:08;;;;;;;2.58;1.15;;;;;;;;;;6301663;22;20011;-94
2022/04/11 18:06:40;;;;;;;1.17;0.63;;;;;;;;;;6300984;22;20014;-94
2022/04/11 18:09:11;;;;;;;3.83;2.55;;;;;;;;;;6301191;22;20022;-95
2022/04/11 18:11:38;;;;;;;0.95;0.75;;;;;;;;;;6301680;22;20015;-95
2022/04/11 18:14:19;;;;;;;0.95;0.60;;;;;;;;;;6325286;22;20032;-95
2022/04/11 18:16:54;;;;;;;1.05;0.73;;;;;;;;;;6301601;22;20019;-94
2022/04/11 18:19:23;;;;;;;0.88;0.57;;;;;;;;;;6302470;22;20026;-96
2022/04/11 18:21:53;;;;;;;0.40;0.40;;;;;;;;;;6301804;22;20014;-96
2022/04/11 18:24:23;;;;;;;0.43;0.43;;;;;;;;;;6303546;22;20444;-94
2022/04/11 18:26:55;;;;;;;1.30;0.75;;;;;;;;;;6304453;22;20022;-96
2022/04/11 18:32:15;;;;;;;0.20;0.20;;;;;;;;;;6329854;22;20018;-96
2022/04/11 18:34:45;;;;;;;0.47;0.47;;;;;;;;;;6329730;22;20329;-95
2022/04/11 18:37:17;;;;;;;1.48;0.88;;;;;;;;;;6302894;22;20066;-95
2022/04/11 18:39:51;;;;;;;2.50;1.27;;;;;;;;;;6330464;22;20019;-94
2022/04/11 18:42:26;;;;;;;0.38;0.38;;;;;;;;;;6281649;22;20425;-93
2022/04/11 18:45:03;;;;;;;;;;;;;;;;;;;;;
2022/04/11 18:47:36;;;;;;;1.98;0.93;;;;;;;;;;6327527;22;20050;-94
2022/04/11 18:50:09;;;;;;;0.25;0.25;;;;;;;;;;6301786;22;20011;-95
2022/04/11 18:52:37;;;;;;;;;;;;;;;;;;6302825;22;20034;-95
2022/04/11 18:55:07;;;;;;;0.55;0.55;;;;;;;;;;6300787;22;19910;-94
2022/04/11 18:57:44;;;;;;;1.08;0.90;;;;;;;;;;6302919;22;20014;-96
2022/04/11 19:00:28;;;;;;;0.20;0.20;;;;;;;;;;6301875;22;20014;-95
2022/04/11 19:02:57;;;;;;;4.22;1.50;;;;;;;;;;6300765;22;20018;-94
2022/04/11 19:05:26;;;;;;;0.63;0.60;;;;;;;;;;6298968;22;20067;-94
2022/04/11 19:08:01;;;;;;;1.05;0.30;;;;;;;;;;6300617;22;20018;-95
2022/04/11 19:10:31;;;;;;;1.60;0.93;;;;;;;;;;6302563;22;20015;-95